Time;durP1;ratioP1;P1;durP2;ratioP2;P2;SDS_P1;SDS_P2;PMS_P1;PMS_P2;Temp;Humidity;BMP_temperature;BMP_pressure;BME280_temperature;BME280_humidity;BME280_pressure;Samples;Min_cycle;Max_cycle;Signal;HPM_P1;HPM_P2
2022/09/15 00:01:39;;;;;;;3.15;2.13;;;18.90;75.50;;;;;;5047217;28;20578;-78
2022/09/15 00:04:06;;;;;;;1.92;1.77;;;18.90;74.80;;;;;;5049475;28;20194;-80
2022/09/15 00:06:33;;;;;;;1.90;1.80;;;18.80;74.30;;;;;;5052346;28;20182;-80
2022/09/15 00:08:58;;;;;;;4.18;1.83;;;18.80;73.70;;;;;;5058021;28;20191;-80
2022/09/15 00:11:28;;;;;;;2.13;2.03;;;18.80;73.90;;;;;;5051792;28;20785;-80
2022/09/15 00:13:56;;;;;;;1.92;1.83;;;18.80;75.00;;;;;;5054242;28;20207;-80
2022/09/15 00:16:24;;;;;;;6.05;1.88;;;18.80;75.50;;;;;;5052398;28;20187;-80
2022/09/15 00:18:50;;;;;;;3.55;1.80;;;18.80;76.40;;;;;;5056501;28;20650;-80
2022/09/15 00:21:18;;;;;;;2.20;2.00;;;18.80;75.20;;;;;;5052413;28;20184;-80
2022/09/15 00:23:45;;;;;;;2.05;1.95;;;18.80;75.90;;;;;;5045804;28;20274;-78
2022/09/15 00:26:15;;;;;;;2.00;2.00;;;18.70;76.70;;;;;;5050342;28;20661;-80
2022/09/15 00:28:41;;;;;;;2.90;2.05;;;18.70;75.70;;;;;;5051876;28;20179;-80
2022/09/15 00:31:10;;;;;;;1.80;1.70;;;18.70;75.00;;;;;;5049885;28;20180;-80
2022/09/15 00:33:36;;;;;;;2.60;1.65;;;18.70;76.80;;;;;;5047840;28;20211;-79
2022/09/15 00:36:07;;;;;;;1.90;1.70;;;18.60;75.80;;;;;;5052393;28;20183;-77
2022/09/15 00:38:34;;;;;;;3.63;2.17;;;18.60;74.70;;;;;;5050885;28;20199;-79
2022/09/15 00:41:01;;;;;;;2.22;1.63;;;18.60;76.70;;;;;;5055803;28;20707;-79
2022/09/15 00:43:45;;;;;;;1.70;1.70;;;18.60;76.40;;;;;;5052131;28;20195;-79
2022/09/15 00:46:12;;;;;;;2.03;1.48;;;18.60;75.20;;;;;;5056616;28;20178;-80
2022/09/15 00:48:42;;;;;;;1.55;1.55;;;18.60;76.10;;;;;;5050466;28;20183;-79
2022/09/15 00:51:10;;;;;;;3.58;1.95;;;18.60;77.00;;;;;;5057140;28;20172;-80
2022/09/15 00:53:36;;;;;;;1.48;1.48;;;18.60;76.30;;;;;;5049443;28;20269;-79
2022/09/15 00:56:04;;;;;;;2.50;1.88;;;18.50;75.80;;;;;;5049171;28;20203;-80
2022/09/15 00:58:42;;;;;;;1.50;1.50;;;18.50;75.80;;;;;;5049312;28;20190;-80
2022/09/15 01:01:08;;;;;;;2.60;1.38;;;18.40;75.10;;;;;;5052638;28;20247;-80
2022/09/15 01:03:35;;;;;;;1.60;1.33;;;18.40;76.60;;;;;;5055249;28;20182;-79
2022/09/15 01:06:12;;;;;;;1.88;1.40;;;18.40;77.00;;;;;;5049781;28;20316;-79
2022/09/15 01:08:46;;;;;;;1.45;1.45;;;18.40;75.70;;;;;;5057992;28;20183;-80
2022/09/15 01:11:15;;;;;;;1.52;1.45;;;18.40;76.70;;;;;;5054720;28;20220;-80
2022/09/15 01:13:42;;;;;;;1.33;1.23;;;18.30;76.80;;;;;;5051818;28;20668;-80
2022/09/15 01:16:23;;;;;;;1.15;1.15;;;18.30;76.50;;;;;;5048330;28;20678;-79
2022/09/15 01:19:22;;;;;;;1.00;1.00;;;18.30;76.00;;;;;;5056083;28;20191;-79
2022/09/15 01:22:12;;;;;;;1.10;1.10;;;18.30;76.00;;;;;;5057629;28;20194;-79
2022/09/15 01:24:48;;;;;;;2.47;1.45;;;18.20;76.20;;;;;;5050567;28;20213;-79
2022/09/15 01:27:42;;;;;;;1.30;1.30;;;18.30;76.30;;;;;;5058366;28;20191;-79
2022/09/15 01:30:21;;;;;;;1.20;1.20;;;18.20;75.80;;;;;;5048517;28;20176;-80
2022/09/15 01:33:05;;;;;;;1.48;1.25;;;18.20;75.80;;;;;;5057430;28;20195;-78
2022/09/15 01:35:32;;;;;;;1.40;1.30;;;18.20;76.10;;;;;;5050455;28;20199;-77
2022/09/15 01:38:32;;;;;;;1.73;1.58;;;18.20;76.50;;;;;;5057010;28;20195;-78
2022/09/15 01:41:01;;;;;;;1.40;1.40;;;18.20;78.00;;;;;;5050656;28;20792;-78
2022/09/15 01:43:28;;;;;;;1.52;1.52;;;18.10;77.40;;;;;;5048192;28;20195;-77
2022/09/15 01:45:54;;;;;;;1.60;1.52;;;18.00;76.30;;;;;;5051106;28;20175;-78
2022/09/15 01:48:23;;;;;;;1.90;1.30;;;17.90;77.10;;;;;;5050156;28;20290;-79
2022/09/15 01:50:53;;;;;;;1.38;1.38;;;17.90;76.40;;;;;;5049465;28;20607;-79
2022/09/15 01:53:21;;;;;;;2.15;1.95;;;17.80;76.70;;;;;;5049434;28;20677;-81
2022/09/15 01:56:04;;;;;;;1.05;1.05;;;17.80;76.50;;;;;;5046774;28;20184;-80
2022/09/15 01:58:30;;;;;;;2.00;1.60;;;17.80;76.50;;;;;;5057610;28;20184;-79
2022/09/15 02:01:28;;;;;;;1.10;1.10;;;17.80;77.90;;;;;;5050194;28;20184;-80
2022/09/15 02:04:01;;;;;;;1.40;1.30;;;17.70;76.30;;;;;;5052784;28;20218;-79
2022/09/15 02:06:38;;;;;;;1.65;1.55;;;17.70;77.30;;;;;;5051069;28;20807;-79
2022/09/15 02:09:19;;;;;;;1.48;1.48;;;17.70;77.70;;;;;;5045423;28;20203;-78
2022/09/15 02:11:57;;;;;;;1.50;1.50;;;17.60;76.00;;;;;;5054458;28;20182;-78
2022/09/15 02:14:55;;;;;;;2.13;1.80;;;17.60;76.30;;;;;;5051210;28;20218;-78
2022/09/15 02:17:22;;;;;;;1.88;1.20;;;17.60;78.40;;;;;;5052839;28;20178;-79
2022/09/15 02:20:24;;;;;;;4.05;1.95;;;17.60;77.50;;;;;;5050981;28;20186;-78
2022/09/15 02:22:56;;;;;;;2.92;1.30;;;17.50;76.80;;;;;;5055674;28;20183;-78
2022/09/15 02:25:36;;;;;;;1.90;1.40;;;17.50;77.00;;;;;;5052110;28;20187;-78
2022/09/15 02:28:06;;;;;;;1.23;1.23;;;17.50;77.20;;;;;;5055636;28;20519;-78
2022/09/15 02:30:35;;;;;;;1.33;1.27;;;17.50;76.60;;;;;;5051603;28;20179;-78
2022/09/15 02:33:05;;;;;;;1.35;1.35;;;17.60;77.40;;;;;;5056041;28;20175;-78
2022/09/15 02:35:35;;;;;;;1.40;1.40;;;17.60;78.30;;;;;;5051416;28;20310;-78
2022/09/15 02:38:04;;;;;;;2.20;1.58;;;17.60;78.00;;;;;;5056180;28;20262;-78
2022/09/15 02:40:31;;;;;;;1.15;1.15;;;17.60;77.30;;;;;;5051190;28;20267;-79
2022/09/15 02:43:01;;;;;;;1.52;1.52;;;17.60;77.20;;;;;;5047915;28;20215;-78
2022/09/15 02:45:29;;;;;;;1.23;1.23;;;17.60;77.30;;;;;;5046274;28;20198;-78
2022/09/15 02:47:56;;;;;;;2.10;1.58;;;17.60;78.10;;;;;;5052578;28;20572;-78
2022/09/15 02:50:24;;;;;;;1.65;1.55;;;17.60;77.70;;;;;;5049409;28;20202;-78
2022/09/15 02:52:50;;;;;;;1.60;1.40;;;17.60;77.30;;;;;;5053300;28;20183;-78
2022/09/15 02:55:16;;;;;;;1.17;1.17;;;17.60;77.90;;;;;;5049141;28;20221;-79
2022/09/15 02:57:41;;;;;;;3.53;1.48;;;17.60;78.60;;;;;;5054475;28;20261;-78
2022/09/15 03:00:15;;;;;;;1.30;1.27;;;17.50;77.60;;;;;;5055532;28;20179;-78
2022/09/15 03:02:48;;;;;;;1.38;1.27;;;17.50;78.10;;;;;;5054933;28;20183;-78
2022/09/15 03:05:15;;;;;;;1.98;1.80;;;17.50;77.30;;;;;;5048895;28;20207;-78
2022/09/15 03:07:41;;;;;;;5.25;1.30;;;17.50;77.90;;;;;;5049155;28;20258;-78
2022/09/15 03:10:09;;;;;;;1.52;1.42;;;17.50;77.90;;;;;;5054254;28;20298;-77
2022/09/15 03:12:47;;;;;;;1.50;1.50;;;17.50;77.60;;;;;;5052710;28;20186;-78
2022/09/15 03:15:15;;;;;;;1.95;1.85;;;17.50;76.50;;;;;;5052665;28;20211;-78
2022/09/15 03:17:42;;;;;;;1.38;1.38;;;17.40;76.80;;;;;;5050336;28;20207;-78
2022/09/15 03:20:10;;;;;;;1.23;1.23;;;17.40;77.20;;;;;;5049851;28;20668;-79
2022/09/15 03:22:37;;;;;;;1.38;1.35;;;17.40;76.80;;;;;;5051544;28;20180;-78
2022/09/15 03:25:04;;;;;;;1.58;1.58;;;17.40;77.20;;;;;;5049897;28;20197;-78
2022/09/15 03:27:30;;;;;;;2.53;2.08;;;17.40;76.80;;;;;;5048394;28;20209;-78
2022/09/15 03:29:56;;;;;;;2.08;1.35;;;17.40;77.00;;;;;;5048461;28;20175;-78
2022/09/15 03:32:22;;;;;;;1.83;1.67;;;17.40;78.50;;;;;;5044309;28;20832;-78
2022/09/15 03:34:48;;;;;;;2.08;1.85;;;17.40;79.10;;;;;;5048109;28;20218;-78
2022/09/15 03:37:14;;;;;;;2.83;1.58;;;17.30;78.30;;;;;;5044981;28;20188;-79
2022/09/15 03:39:39;;;;;;;1.65;1.65;;;17.30;77.70;;;;;;5052419;28;20568;-78
2022/09/15 03:42:05;;;;;;;1.88;1.73;;;17.30;78.60;;;;;;5053620;28;20179;-78
2022/09/15 03:44:31;;;;;;;1.58;1.58;;;17.30;79.00;;;;;;5054708;28;20213;-79
2022/09/15 03:46:57;;;;;;;1.48;1.48;;;17.20;79.10;;;;;;5059546;28;20686;-78
2022/09/15 03:49:23;;;;;;;2.05;1.70;;;17.20;79.30;;;;;;5054215;28;20179;-78
2022/09/15 03:51:49;;;;;;;3.50;1.73;;;17.20;79.00;;;;;;5054717;28;20187;-78
2022/09/15 03:54:15;;;;;;;1.38;1.27;;;17.20;78.90;;;;;;5055715;28;20567;-78
2022/09/15 03:56:40;;;;;;;2.33;1.75;;;17.10;78.70;;;;;;5051771;28;20200;-79
2022/09/15 03:59:07;;;;;;;4.50;2.00;;;17.10;78.90;;;;;;5055592;28;20211;-79
2022/09/15 04:01:33;;;;;;;1.60;1.58;;;17.10;78.40;;;;;;5050231;28;20183;-78
2022/09/15 04:04:00;;;;;;;2.17;1.42;;;17.10;78.40;;;;;;5056743;28;20179;-78
2022/09/15 04:06:26;;;;;;;1.90;1.80;;;17.00;78.00;;;;;;5053004;28;20182;-78
2022/09/15 04:08:53;;;;;;;2.55;2.00;;;17.00;78.40;;;;;;5054056;28;20179;-78
2022/09/15 04:11:21;;;;;;;1.65;1.55;;;17.00;78.90;;;;;;5059227;28;20211;-78
2022/09/15 04:13:47;;;;;;;1.88;1.77;;;17.00;79.10;;;;;;5049140;28;20728;-78
2022/09/15 04:16:16;;;;;;;1.67;1.40;;;17.10;79.00;;;;;;5055940;28;20179;-78
2022/09/15 04:18:42;;;;;;;1.80;1.67;;;17.00;78.50;;;;;;5051948;28;20192;-79
2022/09/15 04:21:14;;;;;;;1.58;1.48;;;17.00;78.70;;;;;;5053920;28;20184;-78
2022/09/15 04:23:41;;;;;;;2.45;2.20;;;17.00;78.80;;;;;;5057050;28;20303;-77
2022/09/15 04:26:28;;;;;;;2.00;2.00;;;17.00;79.30;;;;;;5050985;28;20178;-78
2022/09/15 04:28:54;;;;;;;2.17;1.98;;;17.10;79.50;;;;;;5053010;28;20183;-79
2022/09/15 04:31:20;;;;;;;3.33;2.22;;;17.00;79.50;;;;;;5047846;28;20571;-79
2022/09/15 04:33:46;;;;;;;2.05;1.95;;;17.00;79.50;;;;;;5049173;28;20222;-80
2022/09/15 04:36:21;;;;;;;5.03;1.80;;;17.00;79.00;;;;;;5049119;28;20214;-79
2022/09/15 04:38:47;;;;;;;1.63;1.40;;;17.00;78.90;;;;;;5051889;28;20191;-77
2022/09/15 04:41:13;;;;;;;2.40;2.22;;;17.10;79.10;;;;;;5051699;28;20235;-77
2022/09/15 04:43:40;;;;;;;2.90;2.10;;;17.10;78.80;;;;;;5053883;28;20197;-77
2022/09/15 04:46:06;;;;;;;1.63;1.60;;;17.00;79.00;;;;;;5052491;28;20179;-73
2022/09/15 04:48:33;;;;;;;1.58;1.58;;;17.00;79.10;;;;;;5054407;28;20180;-78
2022/09/15 04:51:04;;;;;;;4.35;1.98;;;17.10;79.00;;;;;;5046058;28;20211;-78
2022/09/15 04:53:30;;;;;;;1.65;1.60;;;17.10;78.30;;;;;;5048852;28;20314;-78
2022/09/15 04:56:11;;;;;;;1.85;1.80;;;17.10;78.40;;;;;;5053661;28;20187;-78
2022/09/15 04:58:42;;;;;;;1.83;1.73;;;17.10;77.70;;;;;;5051517;28;20186;-78
2022/09/15 05:01:10;;;;;;;1.83;1.80;;;17.20;77.80;;;;;;5054849;28;20774;-78
2022/09/15 05:03:37;;;;;;;2.20;1.95;;;17.20;78.30;;;;;;5053938;28;20194;-79
2022/09/15 05:06:05;;;;;;;2.38;2.22;;;17.30;78.20;;;;;;5049217;28;20278;-80
2022/09/15 05:08:30;;;;;;;2.65;1.70;;;17.30;78.10;;;;;;5056954;28;20194;-79
2022/09/15 05:11:03;;;;;;;4.13;2.28;;;17.30;78.20;;;;;;5048555;28;20183;-79
2022/09/15 05:13:29;;;;;;;3.60;2.15;;;17.40;78.90;;;;;;5056747;28;20655;-77
2022/09/15 05:15:54;;;;;;;2.38;1.85;;;17.50;79.20;;;;;;5054039;28;20183;-78
2022/09/15 05:18:20;;;;;;;2.20;2.10;;;17.50;79.00;;;;;;5052231;28;20911;-77
2022/09/15 05:20:46;;;;;;;2.13;2.05;;;17.60;79.40;;;;;;5050040;28;20681;-77
2022/09/15 05:23:11;;;;;;;2.17;1.88;;;17.60;78.90;;;;;;5051964;28;20171;-77
2022/09/15 05:25:37;;;;;;;3.53;2.38;;;17.70;79.20;;;;;;5059823;28;20266;-78
2022/09/15 05:28:06;;;;;;;1.70;1.60;;;17.70;78.70;;;;;;5055397;28;20190;-78
2022/09/15 05:30:32;;;;;;;1.92;1.92;;;17.70;78.50;;;;;;5081695;28;20578;-78
2022/09/15 05:32:58;;;;;;;1.85;1.63;;;17.70;78.30;;;;;;5056464;28;20181;-76
2022/09/15 05:35:23;;;;;;;1.40;1.35;;;17.80;78.00;;;;;;5052408;28;20280;-78
2022/09/15 05:37:49;;;;;;;1.88;1.77;;;17.80;78.20;;;;;;5054983;28;20179;-77
2022/09/15 05:40:15;;;;;;;3.17;1.98;;;17.90;78.40;;;;;;5050916;28;20191;-77
2022/09/15 05:42:41;;;;;;;1.92;1.80;;;17.90;78.80;;;;;;5049979;28;20302;-78
2022/09/15 05:45:07;;;;;;;3.92;1.98;;;17.90;78.00;;;;;;5046457;28;21570;-75
2022/09/15 05:47:32;;;;;;;2.65;2.45;;;18.00;78.40;;;;;;5057092;28;20190;-81
2022/09/15 05:49:58;;;;;;;5.82;2.55;;;18.10;78.40;;;;;;5047178;28;20184;-80
2022/09/15 05:52:24;;;;;;;3.53;2.70;;;18.10;78.30;;;;;;5052494;28;20183;-78
2022/09/15 05:54:49;;;;;;;3.65;3.35;;;18.20;78.10;;;;;;5048361;28;20215;-77
2022/09/15 05:57:15;;;;;;;4.50;3.20;;;18.30;78.40;;;;;;5054041;28;20182;-79
2022/09/15 05:59:42;;;;;;;2.30;2.22;;;18.40;78.60;;;;;;5053518;28;20188;-79
2022/09/15 06:02:10;;;;;;;2.38;2.28;;;18.40;78.00;;;;;;5065185;28;20658;-78
2022/09/15 06:04:35;;;;;;;2.65;2.45;;;18.40;77.80;;;;;;5059075;28;20190;-78
2022/09/15 06:07:01;;;;;;;4.40;2.42;;;18.50;77.90;;;;;;5057284;28;20179;-79
2022/09/15 06:09:27;;;;;;;3.60;2.05;;;18.60;77.60;;;;;;5074031;28;20218;-79
2022/09/15 06:11:53;;;;;;;2.03;1.90;;;18.60;77.20;;;;;;5055306;28;20183;-78
2022/09/15 06:14:18;;;;;;;2.05;1.95;;;18.70;77.10;;;;;;5054225;28;20215;-79
2022/09/15 06:16:44;;;;;;;4.85;2.55;;;18.80;76.90;;;;;;5052426;28;20278;-79
2022/09/15 06:19:10;;;;;;;4.25;2.30;;;18.90;76.80;;;;;;5057346;28;20226;-78
2022/09/15 06:21:35;;;;;;;2.53;2.15;;;19.00;76.70;;;;;;5057394;28;20192;-79
2022/09/15 06:24:04;;;;;;;2.55;2.38;;;19.10;76.50;;;;;;5055604;28;20271;-78
2022/09/15 06:26:30;;;;;;;3.08;2.33;;;19.20;76.20;;;;;;5053069;28;20546;-78
2022/09/15 06:28:59;;;;;;;2.30;2.15;;;19.30;76.10;;;;;;5052553;28;20218;-79
2022/09/15 06:31:26;;;;;;;2.45;2.05;;;19.30;76.10;;;;;;5052041;28;20279;-79
2022/09/15 06:33:54;;;;;;;2.00;2.00;;;19.40;75.50;;;;;;5050266;28;20213;-79
2022/09/15 06:36:22;;;;;;;3.03;2.35;;;19.50;75.40;;;;;;5053469;28;20220;-78
2022/09/15 06:38:48;;;;;;;2.22;2.13;;;19.60;75.30;;;;;;5049551;28;21058;-78
2022/09/15 06:41:14;;;;;;;2.10;2.00;;;19.70;75.40;;;;;;5056156;28;20179;-79
2022/09/15 06:43:41;;;;;;;5.38;2.60;;;19.80;75.20;;;;;;5059042;28;20291;-77
2022/09/15 06:46:15;;;;;;;2.60;2.40;;;19.90;75.00;;;;;;5050531;28;20180;-79
2022/09/15 06:48:42;;;;;;;2.30;2.20;;;19.90;74.60;;;;;;5056306;28;20187;-78
2022/09/15 06:51:10;;;;;;;2.42;2.33;;;20.00;75.10;;;;;;5057751;28;20180;-79
2022/09/15 06:53:37;;;;;;;2.28;2.13;;;20.10;74.60;;;;;;5057913;28;20213;-78
2022/09/15 06:56:09;;;;;;;2.83;2.25;;;20.20;73.90;;;;;;5052244;28;20927;-79
2022/09/15 06:58:36;;;;;;;2.28;2.15;;;20.30;74.00;;;;;;5054586;28;20178;-78
2022/09/15 07:01:04;;;;;;;4.20;2.28;;;20.40;73.20;;;;;;5059430;28;20174;-79
2022/09/15 07:03:30;;;;;;;2.45;2.35;;;20.50;72.60;;;;;;5055099;28;20178;-79
2022/09/15 07:05:56;;;;;;;3.65;2.55;;;20.60;73.10;;;;;;5051211;28;20188;-79
2022/09/15 07:08:21;;;;;;;2.78;2.17;;;20.60;73.10;;;;;;5050780;28;20245;-79
2022/09/15 07:10:47;;;;;;;2.25;2.25;;;20.70;72.90;;;;;;5058890;28;20197;-78
2022/09/15 07:13:13;;;;;;;2.58;2.13;;;20.80;72.90;;;;;;5054713;28;20187;-79
2022/09/15 07:15:39;;;;;;;2.28;2.10;;;20.90;72.80;;;;;;5051502;28;20183;-79
2022/09/15 07:18:05;;;;;;;3.85;3.45;;;21.00;72.60;;;;;;5050420;28;20177;-78
2022/09/15 07:20:32;;;;;;;5.13;3.42;;;21.10;72.00;;;;;;5054914;28;20198;-78
2022/09/15 07:22:58;;;;;;;3.25;2.83;;;21.20;72.00;;;;;;5053258;28;20657;-78
2022/09/15 07:25:24;;;;;;;2.70;2.60;;;21.20;72.20;;;;;;5054997;28;20266;-79
2022/09/15 07:27:50;;;;;;;3.95;3.03;;;21.30;72.30;;;;;;5047065;28;20221;-77
2022/09/15 07:30:15;;;;;;;3.30;3.10;;;21.40;72.30;;;;;;5051340;28;20179;-77
2022/09/15 07:32:41;;;;;;;5.82;4.07;;;21.60;72.00;;;;;;5050861;28;20222;-77
2022/09/15 07:35:07;;;;;;;2.72;2.60;;;21.70;71.50;;;;;;5049952;28;20265;-78
2022/09/15 07:37:34;;;;;;;4.53;2.53;;;21.80;71.70;;;;;;5049739;28;20171;-78
2022/09/15 07:40:00;;;;;;;3.50;3.28;;;21.90;71.50;;;;;;5047467;28;20175;-78
2022/09/15 07:42:27;;;;;;;2.95;2.70;;;22.00;71.60;;;;;;5056149;28;20187;-79
2022/09/15 07:44:52;;;;;;;3.42;3.05;;;22.20;71.30;;;;;;5048694;28;20214;-78
2022/09/15 07:47:18;;;;;;;3.05;2.95;;;22.30;70.70;;;;;;5057949;28;20218;-78
2022/09/15 07:49:44;;;;;;;3.17;2.90;;;22.40;70.80;;;;;;5086241;28;20218;-78
2022/09/15 07:52:10;;;;;;;6.47;2.55;;;22.60;70.60;;;;;;5049872;28;20643;-78
2022/09/15 07:54:35;;;;;;;3.10;2.90;;;22.70;70.40;;;;;;5046926;28;20219;-78
2022/09/15 07:57:01;;;;;;;3.00;2.72;;;22.90;70.10;;;;;;5055950;28;20195;-78
2022/09/15 07:59:27;;;;;;;3.53;3.03;;;23.00;69.90;;;;;;5052461;28;20182;-78
2022/09/15 08:01:53;;;;;;;2.88;2.78;;;23.20;69.30;;;;;;5050791;28;20240;-78
2022/09/15 08:04:18;;;;;;;5.82;3.40;;;23.30;69.30;;;;;;5049921;28;20192;-78
2022/09/15 08:06:44;;;;;;;3.53;2.88;;;23.40;69.50;;;;;;5054035;28;20216;-78
2022/09/15 08:09:16;;;;;;;3.47;2.63;;;23.60;68.70;;;;;;5049895;28;20580;-78
2022/09/15 08:11:42;;;;;;;2.50;2.40;;;23.80;68.40;;;;;;5051375;28;20195;-78
2022/09/15 08:14:08;;;;;;;4.05;2.60;;;23.90;67.30;;;;;;5050486;28;20211;-78
2022/09/15 08:16:35;;;;;;;4.47;3.00;;;24.10;67.30;;;;;;5051334;28;20679;-79
2022/09/15 08:19:01;;;;;;;2.65;2.45;;;24.20;66.30;;;;;;5055753;28;20194;-78
2022/09/15 08:21:27;;;;;;;4.68;2.60;;;24.40;66.30;;;;;;5050981;28;20179;-78
2022/09/15 08:23:55;;;;;;;2.25;2.10;;;24.70;66.00;;;;;;5055604;28;20695;-78
2022/09/15 08:26:21;;;;;;;2.75;2.50;;;25.00;65.80;;;;;;5053884;28;20195;-78
2022/09/15 08:28:47;;;;;;;4.57;2.60;;;25.30;65.20;;;;;;5059169;28;20238;-78
2022/09/15 08:31:14;;;;;;;2.85;2.60;;;25.70;65.00;;;;;;5058888;28;20261;-78
2022/09/15 08:33:40;;;;;;;4.10;2.95;;;26.20;63.10;;;;;;5050704;28;20218;-78
2022/09/15 08:36:11;;;;;;;5.20;3.25;;;26.70;63.30;;;;;;5058220;28;20195;-79
2022/09/15 08:38:41;;;;;;;2.58;2.38;;;27.30;62.30;;;;;;5057359;28;20569;-79
2022/09/15 08:41:24;;;;;;;3.13;2.72;;;28.00;62.40;;;;;;5058524;28;20564;-79
2022/09/15 08:43:56;;;;;;;5.07;3.28;;;28.60;60.50;;;;;;5055044;28;20644;-78
2022/09/15 08:46:35;;;;;;;5.18;3.38;;;29.20;60.80;;;;;;5056242;28;20202;-79
2022/09/15 08:49:18;;;;;;;2.80;2.60;;;29.90;59.60;;;;;;5054089;28;20236;-78
2022/09/15 08:51:49;;;;;;;9.65;3.38;;;30.50;59.60;;;;;;5056266;28;20634;-79
2022/09/15 08:54:24;;;;;;;5.40;2.90;;;31.10;58.40;;;;;;5055744;28;20241;-79
2022/09/15 08:56:50;;;;;;;3.17;2.97;;;31.70;57.80;;;;;;5053153;28;20253;-78
2022/09/15 08:59:18;;;;;;;5.72;3.28;;;32.20;56.90;;;;;;5055226;28;20257;-78
2022/09/15 09:02:11;;;;;;;3.63;2.85;;;32.50;56.10;;;;;;5052758;28;20214;-78
2022/09/15 09:05:04;;;;;;;4.68;2.97;;;32.80;55.10;;;;;;5054998;28;20245;-79
2022/09/15 09:07:33;;;;;;;2.47;2.38;;;33.20;53.40;;;;;;5049939;28;20573;-79
2022/09/15 09:10:04;;;;;;;2.92;2.72;;;33.60;52.80;;;;;;5054286;28;20187;-79
2022/09/15 09:13:10;;;;;;;2.28;2.08;;;33.80;54.30;;;;;;5049474;28;20728;-79
2022/09/15 09:15:46;;;;;;;6.03;2.92;;;34.00;52.40;;;;;;5058834;28;20274;-79
2022/09/15 09:18:21;;;;;;;2.83;2.40;;;34.40;54.00;;;;;;5053367;28;20190;-79
2022/09/15 09:20:52;;;;;;;2.65;1.88;;;34.80;54.10;;;;;;5051027;28;20309;-79
2022/09/15 09:23:23;;;;;;;2.70;2.60;;;35.20;50.90;;;;;;5052712;28;20191;-79
2022/09/15 09:25:51;;;;;;;3.88;2.08;;;35.50;53.20;;;;;;5053253;28;20175;-79
2022/09/15 09:28:34;;;;;;;3.83;2.00;;;35.80;49.50;;;;;;5052731;28;20178;-79
2022/09/15 09:31:06;;;;;;;4.55;2.63;;;36.20;50.30;;;;;;5058738;28;20192;-79
2022/09/15 09:33:54;;;;;;;2.80;2.03;;;36.60;49.70;;;;;;5052216;28;20214;-79
2022/09/15 09:36:20;;;;;;;2.70;2.15;;;36.90;48.70;;;;;;5054811;28;20695;-79
2022/09/15 09:38:47;;;;;;;2.17;2.05;;;37.20;48.60;;;;;;5052450;28;20189;-78
2022/09/15 09:41:14;;;;;;;2.78;2.55;;;37.40;48.50;;;;;;5056174;28;20189;-78
2022/09/15 09:43:42;;;;;;;2.42;2.22;;;37.60;50.90;;;;;;5055965;28;20626;-79
2022/09/15 09:46:15;;;;;;;2.67;2.45;;;37.80;49.40;;;;;;5053768;28;20289;-79
2022/09/15 09:48:51;;;;;;;2.28;2.08;;;38.00;50.60;;;;;;5053112;28;20190;-77
2022/09/15 09:51:38;;;;;;;3.60;2.20;;;38.30;48.90;;;;;;5057832;28;20335;-78
2022/09/15 09:54:10;;;;;;;4.43;1.90;;;38.50;45.30;;;;;;5051006;28;20218;-79
2022/09/15 09:56:36;;;;;;;1.73;1.73;;;38.80;50.00;;;;;;5057724;28;20185;-79
2022/09/15 09:59:02;;;;;;;2.63;2.28;;;39.20;47.40;;;;;;5057383;28;20638;-79
2022/09/15 10:01:28;;;;;;;1.83;1.77;;;39.70;50.40;;;;;;5056466;28;20232;-78
2022/09/15 10:04:11;;;;;;;2.20;2.10;;;40.20;48.50;;;;;;5057148;28;20263;-79
2022/09/15 10:06:38;;;;;;;2.55;2.45;;;40.80;47.30;;;;;;5057077;28;20201;-79
2022/09/15 10:09:13;;;;;;;4.03;2.13;;;41.40;47.70;;;;;;5053829;28;20183;-79
2022/09/15 10:11:50;;;;;;;1.55;1.55;;;41.90;46.20;;;;;;5050916;28;20253;-78
2022/09/15 10:14:37;;;;;;;2.15;2.00;;;42.30;47.80;;;;;;5048979;28;20689;-78
2022/09/15 10:17:08;;;;;;;2.08;1.98;;;42.80;44.80;;;;;;5045227;28;20229;-79
2022/09/15 10:19:55;;;;;;;3.55;2.00;;;43.30;46.50;;;;;;5052944;28;20186;-79
2022/09/15 10:22:29;;;;;;;5.78;2.08;;;43.60;44.20;;;;;;5052090;28;20757;-80
2022/09/15 10:24:56;;;;;;;1.83;1.77;;;44.00;45.90;;;;;;5053072;28;20190;-79
2022/09/15 10:27:35;;;;;;;2.78;2.13;;;44.10;45.50;;;;;;5053205;28;20175;-78
2022/09/15 10:30:13;;;;;;;4.78;2.22;;;44.20;40.90;;;;;;5052849;28;20269;-79
2022/09/15 10:32:41;;;;;;;2.15;1.98;;;43.90;41.00;;;;;;5057009;28;20198;-79
2022/09/15 10:35:18;;;;;;;3.75;2.05;;;43.50;44.40;;;;;;5054144;28;20685;-80
2022/09/15 10:38:11;;;;;;;2.15;1.80;;;43.40;39.90;;;;;;5052474;28;20654;-79
2022/09/15 10:41:02;;;;;;;2.45;1.85;;;43.20;40.50;;;;;;5053919;28;20265;-79
2022/09/15 10:44:03;;;;;;;2.50;1.98;;;43.30;42.30;;;;;;5051225;28;20324;-81
2022/09/15 10:46:54;;;;;;;2.53;2.15;;;43.30;41.00;;;;;;5051777;28;20233;-77
2022/09/15 10:49:29;;;;;;;4.40;2.08;;;43.60;40.80;;;;;;5049804;28;20232;-76
2022/09/15 10:52:13;;;;;;;3.80;2.05;;;43.90;44.10;;;;;;5050561;28;20261;-77
2022/09/15 10:55:16;;;;;;;1.73;1.70;;;44.10;41.60;;;;;;5047755;28;20222;-76
2022/09/15 10:57:51;;;;;;;2.92;1.95;;;44.20;42.80;;;;;;5045020;28;20187;-78
2022/09/15 11:00:21;;;;;;;2.65;2.00;;;44.10;42.20;;;;;;5044078;28;20178;-80
2022/09/15 11:03:12;;;;;;;1.70;1.60;;;44.10;40.00;;;;;;5049082;28;20186;-75
2022/09/15 11:05:45;;;;;;;5.93;1.70;;;44.00;39.10;;;;;;5045974;28;20194;-77
2022/09/15 11:08:25;;;;;;;3.22;1.98;;;43.80;40.70;;;;;;5047984;28;20264;-78
2022/09/15 11:11:12;;;;;;;3.08;1.80;;;43.70;42.90;;;;;;5056445;28;20302;-78
2022/09/15 11:14:05;;;;;;;1.67;1.58;;;43.40;39.30;;;;;;5048014;28;20242;-77
2022/09/15 11:16:33;;;;;;;2.17;2.00;;;42.90;40.80;;;;;;5049717;28;20210;-76
2022/09/15 11:19:41;;;;;;;2.13;1.90;;;42.50;41.00;;;;;;5055380;28;20194;-76
2022/09/15 11:22:23;;;;;;;1.80;1.70;;;41.50;40.40;;;;;;5067774;28;20547;-77
2022/09/15 11:25:10;;;;;;;2.97;1.85;;;40.70;43.30;;;;;;5048015;28;20218;-77
2022/09/15 11:27:41;;;;;;;5.13;1.83;;;40.00;42.50;;;;;;5052167;28;20659;-77
2022/09/15 11:30:19;;;;;;;2.30;1.38;;;39.50;44.30;;;;;;5047582;28;20191;-74
2022/09/15 11:33:06;;;;;;;2.08;1.33;;;39.40;45.00;;;;;;5044756;28;20183;-78
2022/09/15 11:36:13;;;;;;;3.55;1.40;;;39.40;44.40;;;;;;5043906;28;20218;-79
2022/09/15 11:38:57;;;;;;;2.75;1.27;;;39.40;43.90;;;;;;5019996;28;20191;-76
2022/09/15 11:41:48;;;;;;;2.58;1.50;;;40.00;44.80;;;;;;5018255;28;20648;-76
2022/09/15 11:44:17;;;;;;;6.10;1.80;;;40.70;41.90;;;;;;5016344;28;20207;-76
2022/09/15 11:47:03;;;;;;;1.30;1.17;;;41.30;42.30;;;;;;5021551;28;20207;-76
2022/09/15 11:49:38;;;;;;;8.15;1.10;;;41.90;40.90;;;;;;5019412;28;20301;-76
2022/09/15 11:52:31;;;;;;;8.38;1.30;;;42.20;39.90;;;;;;5018092;28;20222;-77
2022/09/15 11:55:30;;;;;;;2.28;1.20;;;42.50;40.70;;;;;;5019598;28;20228;-79
2022/09/15 11:58:07;;;;;;;0.95;0.70;;;43.00;39.60;;;;;;5020895;28;20199;-80
2022/09/15 12:00:43;;;;;;;5.78;1.10;;;43.40;37.40;;;;;;5019230;28;20216;-78
2022/09/15 12:03:49;;;;;;;2.45;0.85;;;43.50;38.80;;;;;;5023592;28;20198;-78
2022/09/15 12:06:25;;;;;;;2.42;1.17;;;43.80;39.20;;;;;;5018634;28;20188;-79
2022/09/15 12:09:00;;;;;;;4.00;1.13;;;44.10;39.80;;;;;;5024657;28;20195;-77
2022/09/15 12:11:33;;;;;;;0.90;0.90;;;44.20;41.60;;;;;;5022251;28;20366;-77
2022/09/15 12:14:01;;;;;;;1.52;0.98;;;44.00;41.40;;;;;;5024785;28;20222;-77
2022/09/15 12:16:28;;;;;;;3.17;1.20;;;44.00;39.20;;;;;;5057432;28;20186;-77
2022/09/15 12:19:03;;;;;;;0.98;0.98;;;43.90;39.60;;;;;;5058348;28;20175;-77
2022/09/15 12:21:44;;;;;;;1.80;1.40;;;43.70;40.20;;;;;;5044181;28;20186;-76
2022/09/15 12:24:37;;;;;;;3.55;1.25;;;43.60;40.70;;;;;;5049682;28;20271;-78
2022/09/15 12:27:03;;;;;;;2.17;1.08;;;43.60;39.10;;;;;;5052843;28;20244;-79
2022/09/15 12:29:36;;;;;;;1.85;1.70;;;43.80;42.00;;;;;;5052234;28;20675;-79
2022/09/15 12:32:26;;;;;;;3.47;1.10;;;43.70;40.20;;;;;;5056219;28;20605;-79
2022/09/15 12:34:59;;;;;;;3.97;0.88;;;43.30;38.00;;;;;;5052761;28;20708;-78
2022/09/15 12:37:33;;;;;;;0.82;0.82;;;43.10;37.70;;;;;;5050247;28;20256;-78
2022/09/15 12:39:59;;;;;;;1.20;0.70;;;42.80;38.60;;;;;;5051763;28;20194;-78
2022/09/15 12:42:30;;;;;;;1.25;0.75;;;42.50;39.60;;;;;;5049699;28;20184;-78
2022/09/15 12:44:57;;;;;;;0.77;0.68;;;42.30;40.50;;;;;;5050385;28;20206;-78
2022/09/15 12:47:38;;;;;;;1.30;0.90;;;42.20;39.30;;;;;;5045070;28;20954;-78
2022/09/15 12:50:27;;;;;;;0.80;0.80;;;42.20;40.00;;;;;;5052786;28;20194;-78
2022/09/15 12:53:11;;;;;;;1.38;0.77;;;42.10;39.30;;;;;;5056805;28;20183;-79
2022/09/15 12:55:50;;;;;;;0.90;0.60;;;42.20;38.90;;;;;;5052416;28;20301;-78
2022/09/15 12:58:20;;;;;;;6.85;1.33;;;42.20;39.50;;;;;;5051006;28;20179;-77
2022/09/15 13:00:46;;;;;;;5.93;1.10;;;42.10;39.50;;;;;;5045964;28;20198;-78
2022/09/15 13:03:38;;;;;;;7.43;1.30;;;41.90;39.60;;;;;;5052077;28;20187;-77
2022/09/15 13:06:20;;;;;;;1.02;1.02;;;42.10;39.10;;;;;;5055470;28;20264;-78
2022/09/15 13:08:51;;;;;;;0.80;0.80;;;42.40;40.10;;;;;;5051527;28;20214;-79
2022/09/15 13:11:26;;;;;;;2.88;0.90;;;42.60;40.70;;;;;;5050988;28;20425;-78
2022/09/15 13:14:02;;;;;;;2.22;0.90;;;42.60;38.60;;;;;;5047535;28;20695;-77